CW2939 Malaga ES current weather conditions

sailwx.info

Wind from 224 at 2 knots gusting 6

Air temperature 26.7° C
Dewpoint 21.4° C

Last reported at 2019-Aug-22 15:07 UTC.
Time now 2019-Aug-22 15:54 UTC

Location: N 36°52' W 004°09'.
View on Google Maps.

See reports from other nearby stations

  
Tides and Currents Weather Stations Pressure Air Temp Water Temp Dewpoint Dewpoint Depression Visibility Wind Speed Wind Dir Waves Ship Positions
date/time (UTC)wind fromknots sea level pressurealtimeterstation pressurevisibilityair tempwater tempwave heightnotes
2019-Aug-22 15:07 224 2 gusting 6 26.7
2019-Aug-22 15:02 159 1 gusting 10 26.1
2019-Aug-22 14:57 221 1 gusting 10 26.1
2019-Aug-22 14:52 127 3 gusting 10 26.1
2019-Aug-22 14:37 231 2 gusting 8 26.1
2019-Aug-22 14:27 162 5 gusting 11 26.1
2019-Aug-22 14:17 177 4 gusting 11 26.1
2019-Aug-22 14:12 152 7 gusting 13 26.1
2019-Aug-22 14:07 153 0 gusting 7 26.7
2019-Aug-22 14:02 138 2 gusting 13 26.7
2019-Aug-22 13:57 194 1 gusting 6 26.7
2019-Aug-22 13:42 168 4 gusting 8 26.7
2019-Aug-22 13:37 186 6 gusting 13 26.7
2019-Aug-22 13:22 130 4 gusting 11 27.2
2019-Aug-22 13:17 155 1 gusting 6 27.2
2019-Aug-22 13:12 155 5 gusting 8 27.2
2019-Aug-22 13:07 217 2 gusting 12 27.2
2019-Aug-22 13:02 093 5 gusting 11 27.2
2019-Aug-22 12:57 207 0 gusting 7 27.2
2019-Aug-22 12:52 160 5 gusting 10 26.7
2019-Aug-22 12:47 134 7 gusting 19 27.2
2019-Aug-22 12:42 134 5 gusting 18 27.2
2019-Aug-22 12:32 144 5 gusting 14 26.7
2019-Aug-22 12:27 148 7 gusting 17 26.7
2019-Aug-22 12:17 141 10 gusting 17 26.1
2019-Aug-22 12:07 179 8 gusting 18 26.1
2019-Aug-22 12:02 130 5 gusting 19 26.1
2019-Aug-22 11:57 137 6 gusting 13 26.1
2019-Aug-22 11:47 145 6 gusting 14 26.1
2019-Aug-22 11:42 141 6 gusting 17 26.1
2019-Aug-22 11:37 136 7 gusting 12 26.1
2019-Aug-22 11:27 133 8 gusting 15 26.1
2019-Aug-22 11:12 136 7 gusting 12 26.1
2019-Aug-22 11:07 139 8 gusting 13 26.1
2019-Aug-22 11:02 138 8 gusting 13 26.1
2019-Aug-22 10:57 140 4 gusting 11 26.1
2019-Aug-22 10:52 141 5 gusting 11 26.7
2019-Aug-22 10:47 162 8 gusting 13 26.7
2019-Aug-22 10:42 165 4 gusting 10 26.1
2019-Aug-22 10:37 151 6 gusting 12 25.6
2019-Aug-22 10:27 145 8 gusting 15 25.6
2019-Aug-22 10:22 150 9 gusting 13 25.6
2019-Aug-22 10:12 085 5 gusting 12 25.6
2019-Aug-22 10:07 160 1 gusting 6 25.6
2019-Aug-22 10:02 268 2 gusting 7 25.6
2019-Aug-22 09:57 184 0 gusting 2 25.6
2019-Aug-22 09:52 184 0 gusting 1 25.6
2019-Aug-22 09:37 184 25.6
2019-Aug-22 09:32 182 0 gusting 4 25.6
2019-Aug-22 09:27 182 1 gusting 5 25.0
2019-Aug-22 09:22 067 2 gusting 6 25.0
2019-Aug-22 09:17 196 0 gusting 2 25.0
2019-Aug-22 09:12 196 0 gusting 5 24.4
2019-Aug-22 09:07 195 0 gusting 2 24.4
2019-Aug-22 09:02 196 0 gusting 4 23.9
2019-Aug-22 08:57 199 23.3
2019-Aug-22 08:42 176 22.8
2019-Aug-22 08:37 176 0 gusting 5 22.8
2019-Aug-22 08:32 173 0 gusting 6 22.2
2019-Aug-22 08:27 172 0 gusting 4 22.2
2019-Aug-22 08:22 172 2 gusting 4 22.2
2019-Aug-22 08:07 184 1 gusting 4 21.7
2019-Aug-22 08:02 187 0 gusting 5 21.7
2019-Aug-22 07:57 191 21.7
2019-Aug-22 07:52 188 0 gusting 4 21.7
2019-Aug-22 07:47 188 0 gusting 2 21.7
2019-Aug-22 07:42 187 21.7
2019-Aug-22 07:37 187 21.7
2019-Aug-22 07:32 187 21.7
2019-Aug-22 07:27 187 1 gusting 6 21.7
2019-Aug-22 07:22 188 21.7
2019-Aug-22 07:17 188 0 gusting 2 21.7
2019-Aug-22 07:02 182 21.7
2019-Aug-22 06:57 182 21.7
2019-Aug-22 06:52 182 0 gusting 2 21.7
2019-Aug-22 06:42 184 21.7
2019-Aug-22 06:37 184 21.7
2019-Aug-22 06:32 184 0 gusting 4 21.7
2019-Aug-22 06:27 181 0 gusting 4 21.7
2019-Aug-22 06:22 178 21.7
2019-Aug-22 06:17 178 21.7
2019-Aug-22 06:12 178 21.7
2019-Aug-22 06:07 178 21.7
2019-Aug-22 06:02 178 21.7
2019-Aug-22 05:57 177 1 gusting 2 21.7
2019-Aug-22 05:32 175 0 gusting 2 21.7
2019-Aug-22 05:27 175 0 gusting 2 21.7
2019-Aug-22 05:22 175 0 gusting 2 21.7
2019-Aug-22 05:17 175 0 gusting 2 21.7
2019-Aug-22 05:07 159 0 gusting 1 21.7
2019-Aug-22 05:02 156 21.7
2019-Aug-22 04:47 155 21.7
2019-Aug-22 04:42 155 21.7
2019-Aug-22 04:37 155 0 gusting 4 21.7
2019-Aug-22 04:32 155 21.7
2019-Aug-22 04:27 154 21.7
2019-Aug-22 04:17 154 21.7
2019-Aug-22 04:12 154 21.7
2019-Aug-22 04:02 153 21.7
2019-Aug-22 03:57 153 21.7
2019-Aug-22 03:52 153 21.7
2019-Aug-22 03:37 152 21.7
2019-Aug-22 03:32 152 0 gusting 5 21.7
2019-Aug-22 03:27 148 21.7
2019-Aug-22 03:22 148 21.7
2019-Aug-22 03:17 148 21.7
2019-Aug-22 03:12 148 21.7
2019-Aug-22 03:07 148 21.7
2019-Aug-22 02:57 147 21.7
2019-Aug-22 02:42 147 21.7
2019-Aug-22 02:32 147 21.7
2019-Aug-22 02:27 146 21.7
2019-Aug-22 02:22 146 0 gusting 2 21.7
2019-Aug-22 02:17 144 0 gusting 2 21.7
2019-Aug-22 02:12 144 1 gusting 2 21.7
2019-Aug-22 02:02 144 21.7
2019-Aug-22 01:57 144 21.7
2019-Aug-22 01:42 135 2 gusting 6 21.7
2019-Aug-22 01:37 132 1 gusting 4 21.7
2019-Aug-22 01:32 132 2 gusting 4 21.7
2019-Aug-22 01:17 146 6 gusting 8 21.7
2019-Aug-22 01:12 152 6 gusting 10 21.7
2019-Aug-22 01:07 135 3 gusting 7 21.7
2019-Aug-22 01:02 140 5 gusting 8 21.7
2019-Aug-22 00:52 142 5 gusting 10 21.7
2019-Aug-22 00:47 154 3 gusting 6 21.7
2019-Aug-22 00:37 171 2 gusting 6 21.7
2019-Aug-22 00:32 144 0 gusting 4 22.2
2019-Aug-22 00:27 144 1 gusting 8 22.2
2019-Aug-22 00:22 165 3 gusting 6 22.2
2019-Aug-22 00:02 177 1 gusting 5 22.2
2019-Aug-21 23:52 200 22.2
2019-Aug-21 23:27 172 0 gusting 6 22.8
2019-Aug-21 23:22 155 1 gusting 4 22.8
2019-Aug-21 23:12 146 6 gusting 10 22.8
2019-Aug-21 23:07 141 1 gusting 5 23.3
2019-Aug-21 23:02 136 23.3
2019-Aug-21 22:52 146 7 gusting 12 23.3
2019-Aug-21 22:47 144 4 gusting 14 23.3
2019-Aug-21 22:32 142 6 gusting 13 23.3
2019-Aug-21 22:22 145 7 gusting 14 23.3
2019-Aug-21 22:17 131 5 gusting 12 23.3
2019-Aug-21 22:02 136 6 gusting 11 23.3
2019-Aug-21 21:57 140 6 gusting 11 23.9
2019-Aug-21 21:52 133 6 gusting 12 23.9
2019-Aug-21 21:37 223 1 gusting 8 23.9
2019-Aug-21 21:32 160 3 gusting 6 23.9
2019-Aug-21 21:27 195 0 gusting 7 23.9
2019-Aug-21 21:22 178 2 gusting 6 23.9
2019-Aug-21 21:17 161 1 gusting 6 23.9
2019-Aug-21 21:12 172 0 gusting 5 23.9
2019-Aug-21 21:07 155 1 gusting 6 23.9
2019-Aug-21 20:52 152 2 gusting 6 23.9
2019-Aug-21 20:47 162 1 gusting 6 23.9
2019-Aug-21 20:32 146 2 gusting 6 23.9
2019-Aug-21 20:27 132 0 gusting 6 23.9
2019-Aug-21 20:22 184 1 gusting 5 23.9
2019-Aug-21 20:17 229 1 gusting 6 23.9
2019-Aug-21 20:12 182 1 gusting 5 23.9
2019-Aug-21 20:07 252 1 gusting 6 23.9
2019-Aug-21 19:57 199 0 gusting 4 23.9
2019-Aug-21 19:52 217 0 gusting 4 24.4
2019-Aug-21 19:47 170 2 gusting 6 24.4
2019-Aug-21 19:37 209 1 gusting 5 24.4
2019-Aug-21 19:32 219 0 gusting 4 24.4
2019-Aug-21 19:22 197 0 gusting 2 24.4
2019-Aug-21 19:17 177 0 gusting 5 24.4
2019-Aug-21 19:12 195 1 gusting 6 24.4
2019-Aug-21 19:07 175 1 gusting 5 24.4
2019-Aug-21 19:02 195 1 gusting 4 24.4
2019-Aug-21 18:52 188 3 gusting 6 24.4
2019-Aug-21 18:47 237 2 gusting 6 25.0
2019-Aug-21 18:42 191 1 gusting 6 25.0
2019-Aug-21 18:37 225 25.0
2019-Aug-21 18:32 171 1 gusting 7 25.0
2019-Aug-21 18:27 175 0 gusting 4 25.0
2019-Aug-21 18:22 182 0 gusting 4 25.6
2019-Aug-21 18:12 209 2 gusting 8 25.6
2019-Aug-21 18:07 181 2 gusting 10 25.6
2019-Aug-21 18:02 200 3 gusting 11 26.1
2019-Aug-21 17:57 150 2 gusting 6 26.1
2019-Aug-21 17:52 227 2 gusting 6 26.1
2019-Aug-21 17:27 183 4 gusting 10 26.7
2019-Aug-21 17:22 223 0 gusting 6 26.7
2019-Aug-21 17:17 139 3 gusting 10 27.2
2019-Aug-21 17:02 144 1 gusting 6 27.2
2019-Aug-21 16:52 129 5 gusting 10 27.2
2019-Aug-21 16:47 227 0 gusting 13 27.8
2019-Aug-21 16:37 142 5 gusting 10 27.8
2019-Aug-21 16:32 162 5 gusting 10 27.8
2019-Aug-21 16:27 204 1 gusting 11 28.3
2019-Aug-21 16:22 211 6 gusting 14 28.3
2019-Aug-21 16:12 206 2 gusting 8 28.3
2019-Aug-21 15:57 243 2 gusting 10 28.3
2019-Aug-21 15:52 199 1 gusting 7 28.3
2019-Aug-21 15:37 182 5 gusting 12 28.3
2019-Aug-21 15:17 244 5 gusting 11 27.8
2019-Aug-21 15:12 155 4 gusting 11 27.8
2019-Aug-21 15:07 126 1 gusting 13 27.8
2019-Aug-21 15:02 218 4 gusting 8 27.2
2019-Aug-21 14:57 143 6 gusting 15 27.2
2019-Aug-21 14:52 137 4 gusting 11 26.7
2019-Aug-21 14:47 170 5 gusting 13 26.7
2019-Aug-21 14:42 129 6 gusting 13 26.7
2019-Aug-21 14:37 153 6 gusting 13 26.7
2019-Aug-21 14:27 151 6 gusting 13 26.7
2019-Aug-21 14:22 140 8 gusting 15 27.2
2019-Aug-21 14:17 136 8 gusting 19 27.2
2019-Aug-21 14:12 127 10 gusting 18 26.7
2019-Aug-21 14:02 127 10 gusting 18 26.7
2019-Aug-21 13:37 144 7 gusting 13 26.7
2019-Aug-21 13:27 146 6 gusting 19 26.1
2019-Aug-21 13:12 135 8 gusting 19 26.7
2019-Aug-21 13:07 141 9 gusting 18 26.7
2019-Aug-21 13:02 175 5 gusting 12 27.2
2019-Aug-21 12:57 182 7 gusting 19 27.2
2019-Aug-21 12:52 131 4 gusting 14 27.2
2019-Aug-21 12:47 146 2 gusting 12 27.2
2019-Aug-21 12:42 133 4 gusting 15 26.7
2019-Aug-21 12:37 151 6 gusting 13 27.2
2019-Aug-21 12:32 137 6 gusting 13 27.2
2019-Aug-21 12:27 176 5 gusting 12 27.2
2019-Aug-21 12:12 136 4 gusting 12 27.2
2019-Aug-21 12:02 158 6 gusting 14 27.8
2019-Aug-21 11:52 131 4 gusting 13 27.2
2019-Aug-21 11:47 139 6 gusting 12 27.2
2019-Aug-21 11:42 140 8 gusting 17 27.2
2019-Aug-21 11:37 133 8 gusting 14 27.2
2019-Aug-21 11:32 128 10 gusting 14 27.2
2019-Aug-21 11:27 146 9 gusting 15 27.8
2019-Aug-21 11:22 135 10 gusting 17 27.8
2019-Aug-21 10:52 151 6 gusting 17 27.2
2019-Aug-21 10:47 174 1 gusting 13 27.8
2019-Aug-21 10:42 151 7 gusting 11 27.8
2019-Aug-21 10:37 142 4 gusting 10 27.8
2019-Aug-21 10:07 133 7 gusting 13 27.8
2019-Aug-21 10:02 158 6 gusting 10 28.3
2019-Aug-21 09:57 128 4 gusting 10 28.3
2019-Aug-21 09:52 137 2 gusting 6 28.3
2019-Aug-21 09:47 169 5 gusting 10 28.9
2019-Aug-21 09:42 272 3 gusting 10 28.9
2019-Aug-21 09:32 140 2 gusting 8 28.3
2019-Aug-21 09:27 188 4 gusting 10 28.3
2019-Aug-21 09:22 152 4 gusting 8 27.8
2019-Aug-21 09:17 202 2 gusting 10 27.2
2019-Aug-21 09:12 262 3 gusting 10 26.7
2019-Aug-21 09:02 208 4 gusting 7 26.7
2019-Aug-21 08:57 200 2 gusting 6 26.7
2019-Aug-21 08:42 153 2 gusting 10 26.1
2019-Aug-21 08:37 148 5 gusting 7 26.7
2019-Aug-21 08:32 199 4 gusting 7 26.7
2019-Aug-21 08:27 127 2 gusting 5 26.7
2019-Aug-21 08:22 160 2 gusting 5 26.1
2019-Aug-21 08:17 132 1 gusting 7 25.6
2019-Aug-21 08:12 142 3 gusting 8 25.6
2019-Aug-21 08:07 120 5 gusting 8 25.6
2019-Aug-21 08:02 171 1 gusting 7 25.6
2019-Aug-21 07:57 154 5 gusting 7 25.0
2019-Aug-21 07:52 136 5 gusting 10 25.0
2019-Aug-21 07:47 135 25.0
2019-Aug-21 07:42 135 25.0
2019-Aug-21 07:37 128 1 gusting 6 25.0
2019-Aug-21 07:32 128 0 gusting 6 25.0
2019-Aug-21 07:27 171 1 gusting 5 25.0
2019-Aug-21 07:22 196 0 gusting 2 24.4
2019-Aug-21 07:17 197 0 gusting 4 24.4
2019-Aug-21 07:07 196 1 gusting 2 23.9
2019-Aug-21 07:02 194 23.9
2019-Aug-21 06:57 194 23.9
2019-Aug-21 06:52 194 23.9
2019-Aug-21 06:47 194 23.3
2019-Aug-21 06:42 194 0 gusting 2 23.3
2019-Aug-21 06:37 194 23.3
2019-Aug-21 06:32 194 1 gusting 2 23.3
2019-Aug-21 06:17 194 0 gusting 1 23.3
2019-Aug-21 06:12 194 23.3
2019-Aug-21 06:07 194 23.3
2019-Aug-21 06:02 194 1 gusting 2 23.3
2019-Aug-21 05:57 194 23.3
2019-Aug-21 05:52 194 23.3
2019-Aug-21 05:47 194 23.3
2019-Aug-21 05:42 194 23.3
2019-Aug-21 05:37 194 0 gusting 2 23.3
2019-Aug-21 05:32 193 23.3
2019-Aug-21 05:27 192 23.3
2019-Aug-21 05:22 192 0 gusting 2 23.3
2019-Aug-21 05:17 192 23.3
2019-Aug-21 05:12 192 23.3
2019-Aug-21 05:02 192 23.3
2019-Aug-21 04:57 192 23.3
2019-Aug-21 04:52 192 23.3
2019-Aug-21 04:42 192 23.3
2019-Aug-21 04:37 192 23.3
2019-Aug-21 04:27 192 23.3
2019-Aug-21 04:22 192 23.3
2019-Aug-21 04:07 192 23.3
2019-Aug-21 04:02 192 23.3
2019-Aug-21 03:57 192 23.3
2019-Aug-21 03:52 192 23.3
2019-Aug-21 03:47 192 23.3
2019-Aug-21 03:42 192 23.3
2019-Aug-21 03:32 192 23.3
2019-Aug-21 03:17 192 23.3
2019-Aug-21 03:12 192 23.3
2019-Aug-21 03:07 192 23.3
2019-Aug-21 02:47 192 23.3
2019-Aug-21 02:22 192 23.3
2019-Aug-21 02:12 192 23.3
2019-Aug-21 02:07 192 23.3
2019-Aug-21 02:02 192 23.3
2019-Aug-21 01:57 192 23.3
2019-Aug-21 01:47 192 23.3
2019-Aug-21 01:42 192 23.3
2019-Aug-21 01:37 192 23.3
2019-Aug-21 01:32 192 23.3
2019-Aug-21 01:27 192 23.3
2019-Aug-21 01:17 192 23.3
2019-Aug-21 01:12 192 23.3
2019-Aug-21 01:07 192 23.3
2019-Aug-21 00:57 192 23.3
2019-Aug-21 00:52 192 23.3
2019-Aug-21 00:47 192 23.3
2019-Aug-21 00:37 192 23.3
2019-Aug-21 00:32 192 23.3
2019-Aug-21 00:27 192 23.3
2019-Aug-21 00:22 192 23.3
2019-Aug-21 00:17 192 23.3
2019-Aug-21 00:12 192 23.9
2019-Aug-21 00:07 192 23.9
2019-Aug-21 00:02 192 23.9
2019-Aug-20 23:57 192 0 gusting 1 23.3
2019-Aug-20 23:47 192 23.3
2019-Aug-20 23:42 192 0 gusting 2 23.3
2019-Aug-20 23:37 192 23.3
2019-Aug-20 23:32 192 23.3
2019-Aug-20 23:27 192 23.3
2019-Aug-20 23:22 192 0 gusting 2 23.3
2019-Aug-20 23:12 192 23.3
2019-Aug-20 23:07 192 23.9
2019-Aug-20 23:02 192 23.9
2019-Aug-20 22:52 192 23.9
2019-Aug-20 22:47 192 23.9
2019-Aug-20 22:42 190 23.9
2019-Aug-20 22:37 190 1 gusting 2 23.9
2019-Aug-20 22:32 190 0 gusting 1 23.9
2019-Aug-20 22:27 190 23.9
2019-Aug-20 22:22 190 0 gusting 2 23.9
2019-Aug-20 22:17 189 0 gusting 2 23.9
2019-Aug-20 22:12 189 1 gusting 2 23.9
2019-Aug-20 22:07 189 23.9
2019-Aug-20 22:02 189 23.9
2019-Aug-20 21:57 189 0 gusting 2 23.9
2019-Aug-20 21:47 190 24.4
2019-Aug-20 21:42 190 0 gusting 2 24.4
2019-Aug-20 21:37 190 0 gusting 1 24.4
2019-Aug-20 21:32 189 0 gusting 4 24.4
2019-Aug-20 21:27 188 1 gusting 2 24.4
2019-Aug-20 21:17 186 1 gusting 2 24.4
2019-Aug-20 21:12 186 1 gusting 4 24.4
2019-Aug-20 21:02 184 1 gusting 2 24.4
2019-Aug-20 20:47 184 24.4
2019-Aug-20 20:42 184 1 gusting 2 24.4
2019-Aug-20 20:37 184 24.4
2019-Aug-20 20:32 184 24.4
2019-Aug-20 20:27 184 24.4
2019-Aug-20 20:12 184 24.4
2019-Aug-20 20:02 184 24.4
2019-Aug-20 19:52 184 0 gusting 2 24.4
2019-Aug-20 19:47 184 0 gusting 2 24.4
2019-Aug-20 19:37 182 0 gusting 2 24.4
2019-Aug-20 19:32 181 24.4
2019-Aug-20 19:27 181 0 gusting 4 24.4
2019-Aug-20 19:22 181 25.0
2019-Aug-20 19:12 181 25.0
2019-Aug-20 19:07 181 25.0
2019-Aug-20 19:02 181 0 gusting 2 25.6
2019-Aug-20 18:57 180 1 gusting 5 25.6
2019-Aug-20 18:42 235 1 gusting 6 26.1
2019-Aug-20 18:27 246 1 gusting 6 26.7
2019-Aug-20 18:17 226 0 gusting 2 27.2
2019-Aug-20 18:07 111 0 gusting 2 27.8
2019-Aug-20 18:02 111 0 gusting 2 27.8
2019-Aug-20 17:57 111 1 gusting 6 27.8
2019-Aug-20 17:42 238 0 gusting 5 27.8
2019-Aug-20 17:37 238 2 gusting 10 27.8
2019-Aug-20 17:32 181 0 gusting 2 27.8
2019-Aug-20 17:27 160 1 gusting 6 27.8
2019-Aug-20 17:22 248 0 gusting 4 27.8
2019-Aug-20 17:17 249 0 gusting 8 27.8
2019-Aug-20 17:12 140 2 gusting 7 28.3
2019-Aug-20 17:07 138 4 gusting 7 28.3
2019-Aug-20 17:02 141 28.9
2019-Aug-20 16:47 328 1 gusting 6 28.3
2019-Aug-20 16:37 224 1 gusting 5 28.3
2019-Aug-20 16:32 177 2 gusting 7 28.3
2019-Aug-20 16:27 144 5 gusting 8 28.3
2019-Aug-20 16:22 163 0 gusting 5 28.3
2019-Aug-20 16:17 153 3 gusting 7 28.9
2019-Aug-20 16:12 133 3 gusting 8 29.4
2019-Aug-20 16:07 148 1 gusting 5 29.4
2019-Aug-20 15:47 222 0 gusting 6 29.4
2019-Aug-20 15:37 137 1 gusting 6 29.4
2019-Aug-20 15:32 147 4 gusting 8 29.4
2019-Aug-20 15:12 143 2 gusting 6 29.4
2019-Aug-20 15:07 219 1 gusting 12 30.0
2019-Aug-20 15:02 185 2 gusting 8 30.0